Time;durP1;ratioP1;P1;durP2;ratioP2;P2;SDS_P1;SDS_P2;PMS_P1;PMS_P2;Temp;Humidity;BMP_temperature;BMP_pressure;BME280_temperature;BME280_humidity;BME280_pressure;Samples;Min_cycle;Max_cycle;Signal;HPM_P1;HPM_P2
2021/04/23 00:00:28;;;;;;;1999.90;999.90;;;;;;;6.38;73.01;98629.88;5060102;28;20127;-65
2021/04/23 00:02:56;;;;;;;1999.90;999.90;;;;;;;6.54;72.24;98625.03;5062743;28;20052;-65
2021/04/23 00:05:23;;;;;;;1999.90;999.90;;;;;;;6.47;72.28;98633.63;5067466;28;20048;-65
2021/04/23 00:07:49;;;;;;;1999.90;999.90;;;;;;;6.52;72.40;98624.53;5061858;28;20109;-65
2021/04/23 00:10:18;;;;;;;1999.90;999.90;;;;;;;6.66;71.85;98630.94;5065503;28;20450;-65
2021/04/23 00:12:44;;;;;;;1999.90;999.90;;;;;;;6.68;71.80;98634.22;5062410;28;20601;-65
2021/04/23 00:15:13;;;;;;;1999.90;999.90;;;;;;;6.51;71.88;98634.66;5064961;28;20545;-65
2021/04/23 00:17:40;;;;;;;1999.90;999.90;;;;;;;6.42;72.65;98630.94;5068161;28;20400;-65
2021/04/23 00:20:15;;;;;;;1999.90;999.90;;;;;;;6.28;73.13;98638.22;5068750;28;20127;-65
2021/04/23 00:22:42;;;;;;;1999.90;999.90;;;;;;;6.62;71.99;98634.56;5065370;28;20055;-65
2021/04/23 00:25:08;;;;;;;1999.90;999.90;;;;;;;6.49;72.55;98636.06;5063910;28;20110;-65
2021/04/23 00:27:35;;;;;;;1999.90;999.90;;;;;;;6.31;73.35;98634.88;5066679;28;20049;-65
2021/04/23 00:30:01;;;;;;;1999.90;999.90;;;;;;;5.90;74.67;98630.59;5070496;28;20484;-65
2021/04/23 00:35:14;;;;;;;1999.90;999.90;;;;;;;6.04;74.49;98627.19;5065589;28;20516;-65
2021/04/23 00:37:46;;;;;;;1999.90;999.90;;;;;;;5.73;75.63;98622.78;5070552;28;20052;-65
2021/04/23 00:40:20;;;;;;;1999.90;999.90;;;;;;;5.80;75.37;98625.19;5067479;28;20523;-65
2021/04/23 00:42:46;;;;;;;1999.90;999.90;;;;;;;5.57;76.27;98621.28;5066339;28;20052;-65
2021/04/23 00:45:14;;;;;;;1999.90;999.90;;;;;;;5.69;76.06;98623.66;5063716;28;20044;-65
2021/04/23 00:47:44;;;;;;;1999.90;999.90;;;;;;;5.42;77.13;98628.50;5066323;28;20056;-65
2021/04/23 00:50:11;;;;;;;1999.90;999.90;;;;;;;5.67;76.29;98621.16;5069278;28;20056;-65
2021/04/23 00:52:37;;;;;;;1999.90;999.90;;;;;;;5.90;75.16;98632.53;5064258;28;20161;-65
2021/04/23 00:55:05;;;;;;;1999.90;999.90;;;;;;;5.69;75.74;98631.88;5066254;28;20049;-65
2021/04/23 00:57:31;;;;;;;1999.90;999.90;;;;;;;5.76;75.52;98624.13;5068921;28;20090;-65
2021/04/23 00:59:57;;;;;;;1999.90;999.90;;;;;;;5.63;75.86;98631.09;5067891;28;20052;-65
2021/04/23 01:02:23;;;;;;;1999.90;999.90;;;;;;;5.20;77.47;98634.41;5061815;28;20446;-65
2021/04/23 01:04:49;;;;;;;1999.90;999.90;;;;;;;5.16;78.14;98638.00;5068221;28;20569;-65
2021/04/23 01:07:15;;;;;;;1999.90;999.90;;;;;;;5.24;77.78;98637.38;5065968;28;20098;-65
2021/04/23 01:09:41;;;;;;;1999.90;999.90;;;;;;;5.37;77.46;98636.75;5065929;28;20090;-65
2021/04/23 01:12:08;;;;;;;1999.90;999.90;;;;;;;5.11;77.93;98641.59;5064695;28;20098;-65
2021/04/23 01:14:34;;;;;;;1999.90;999.90;;;;;;;5.18;77.52;98646.75;5068283;28;20093;-65
2021/04/23 01:17:00;;;;;;;1999.90;999.90;;;;;;;5.19;77.79;98643.72;5065773;28;20037;-65
2021/04/23 01:19:28;;;;;;;1999.90;999.90;;;;;;;5.41;77.04;98647.97;5063215;28;20040;-65
2021/04/23 01:21:55;;;;;;;1999.90;999.90;;;;;;;5.29;76.98;98651.88;5069409;28;20054;-65
2021/04/23 01:24:22;;;;;;;1999.90;999.90;;;;;;;5.32;76.98;98649.69;5063429;28;20106;-65
2021/04/23 01:26:54;;;;;;;1999.90;999.90;;;;;;;5.27;77.23;98658.78;5065910;28;20545;-65
2021/04/23 01:29:21;;;;;;;1999.90;999.90;;;;;;;5.38;76.52;98652.09;5067023;28;20522;-65
2021/04/23 01:31:51;;;;;;;1999.90;999.90;;;;;;;5.11;77.44;98658.03;5066363;28;20052;-65
2021/04/23 01:34:30;;;;;;;1999.90;999.90;;;;;;;5.05;77.54;98653.69;5064219;28;20041;-65
2021/04/23 01:36:59;;;;;;;1999.90;999.90;;;;;;;5.00;77.95;98659.16;5061547;28;20484;-65
2021/04/23 01:39:28;;;;;;;1999.90;999.90;;;;;;;4.85;78.70;98649.91;5062897;28;20103;-65
2021/04/23 01:41:56;;;;;;;1999.90;999.90;;;;;;;4.95;78.28;98657.28;5068124;28;20044;-65
2021/04/23 01:44:25;;;;;;;1999.90;999.90;;;;;;;5.05;77.78;98650.94;5062963;28;20504;-65
2021/04/23 01:46:52;;;;;;;1999.90;999.90;;;;;;;5.03;78.08;98653.13;5067100;28;20557;-65
2021/04/23 01:49:20;;;;;;;1999.90;999.90;;;;;;;5.40;76.46;98654.56;5068512;28;20143;-65
2021/04/23 01:51:51;;;;;;;1999.90;999.90;;;;;;;5.10;77.57;98653.63;5075404;28;20045;-65
2021/04/23 01:54:17;;;;;;;1999.90;999.90;;;;;;;4.96;77.92;98652.59;5068908;28;20044;-65
2021/04/23 01:56:44;;;;;;;1999.90;999.90;;;;;;;5.24;76.72;98651.09;5061219;28;20435;-65
2021/04/23 01:59:14;;;;;;;1999.90;999.90;;;;;;;5.38;76.38;98662.25;5064701;28;20065;-65
2021/04/23 02:01:41;;;;;;;1999.90;999.90;;;;;;;4.94;77.84;98652.88;5064093;28;20045;-65
2021/04/23 02:04:09;;;;;;;1999.90;999.90;;;;;;;4.87;78.10;98661.44;5067191;28;20048;-65
2021/04/23 02:06:36;;;;;;;1999.90;999.90;;;;;;;5.01;77.81;98663.56;5061206;28;20558;-65
2021/04/23 02:09:05;;;;;;;1999.90;999.90;;;;;;;5.10;77.18;98664.59;5069197;28;20044;-65
2021/04/23 02:11:31;;;;;;;1999.90;999.90;;;;;;;5.08;77.03;98658.59;5064807;28;20118;-65
2021/04/23 02:13:57;;;;;;;1999.90;999.90;;;;;;;5.17;77.03;98659.63;5064231;28;20052;-65
2021/04/23 02:16:24;;;;;;;1999.90;999.90;;;;;;;5.16;76.79;98652.50;5067450;28;20125;-65
2021/04/23 02:18:51;;;;;;;1999.90;999.90;;;;;;;4.83;77.54;98652.13;5066794;28;20048;-65
2021/04/23 02:21:18;;;;;;;1999.90;999.90;;;;;;;5.22;76.39;98648.63;5060911;28;20478;-65
2021/04/23 02:23:46;;;;;;;1999.90;999.90;;;;;;;4.98;77.10;98656.72;5064100;28;20045;-65
2021/04/23 02:26:14;;;;;;;1999.90;999.90;;;;;;;5.02;76.82;98657.00;5067653;28;20492;-65
2021/04/23 02:28:44;;;;;;;1999.90;999.90;;;;;;;5.03;76.83;98658.59;5063147;28;20476;-65
2021/04/23 02:31:14;;;;;;;1999.90;999.90;;;;;;;5.02;76.81;98665.22;5065251;28;20049;-65
2021/04/23 02:33:42;;;;;;;1999.90;999.90;;;;;;;5.13;76.42;98665.97;5060299;28;21579;-65
2021/04/23 02:36:09;;;;;;;1999.90;999.90;;;;;;;4.90;76.72;98658.13;5063986;28;20098;-65
2021/04/23 02:38:36;;;;;;;1999.90;999.90;;;;;;;4.87;76.65;98658.69;5064296;28;20071;-65
2021/04/23 02:41:04;;;;;;;1999.90;999.90;;;;;;;5.19;75.40;98660.16;5064700;28;20125;-65
2021/04/23 02:43:34;;;;;;;1999.90;999.90;;;;;;;5.14;75.75;98662.94;5064237;28;20179;-65
2021/04/23 02:46:02;;;;;;;1999.90;999.90;;;;;;;5.02;76.04;98665.22;5068080;28;20106;-65
2021/04/23 02:48:31;;;;;;;1999.90;999.90;;;;;;;5.07;75.93;98668.72;5066048;28;20052;-65
2021/04/23 02:51:01;;;;;;;1999.90;999.90;;;;;;;4.89;75.98;98664.69;5065215;28;20528;-65
2021/04/23 02:53:29;;;;;;;1999.90;999.90;;;;;;;4.81;76.57;98667.19;5064644;28;20097;-65
2021/04/23 02:55:55;;;;;;;1999.90;999.90;;;;;;;4.81;76.38;98676.25;5064597;28;20106;-65
2021/04/23 02:58:22;;;;;;;1999.90;999.90;;;;;;;5.09;75.25;98672.03;5068396;28;20426;-65
2021/04/23 03:00:51;;;;;;;1999.90;999.90;;;;;;;5.41;74.24;98670.72;5065858;28;20052;-65
2021/04/23 03:03:18;;;;;;;1999.90;999.90;;;;;;;5.37;73.82;98666.09;5062960;28;20102;-65
2021/04/23 03:05:46;;;;;;;1999.90;999.90;;;;;;;5.55;73.52;98662.72;5067988;28;20098;-65
2021/04/23 03:08:13;;;;;;;1999.90;999.90;;;;;;;5.44;73.49;98672.91;5062461;28;20045;-65
2021/04/23 03:10:45;;;;;;;1999.90;999.90;;;;;;;5.19;74.45;98665.66;5062462;28;20055;-65
2021/04/23 03:13:13;;;;;;;;;;;;;;;5.07;75.34;98665.97;5058943;28;20048;-65
2021/04/23 03:15:39;;;;;;;1999.90;999.90;;;;;;;5.34;74.67;98663.94;5063142;28;20532;-65
2021/04/23 03:18:09;;;;;;;1999.90;999.90;;;;;;;5.09;75.30;98662.94;5066633;28;20451;-65
2021/04/23 03:20:35;;;;;;;1999.90;999.90;;;;;;;5.27;75.24;98673.28;5066373;28;20052;-65
2021/04/23 03:23:02;;;;;;;1999.90;999.90;;;;;;;5.23;74.81;98665.91;5064373;28;20088;-65
2021/04/23 03:25:30;;;;;;;1999.90;999.90;;;;;;;4.84;75.76;98670.22;5065326;28;20057;-65
2021/04/23 03:27:57;;;;;;;1999.90;999.90;;;;;;;5.03;75.67;98677.78;5063836;28;20041;-65
2021/04/23 03:30:26;;;;;;;1999.90;999.90;;;;;;;5.27;74.56;98673.28;5056774;28;20095;-65
2021/04/23 03:32:53;;;;;;;1999.90;999.90;;;;;;;4.95;75.37;98679.19;5067233;28;20519;-65
2021/04/23 03:35:19;;;;;;;1999.90;999.90;;;;;;;4.85;75.55;98682.78;5063143;28;20097;-65
2021/04/23 03:37:46;;;;;;;1999.90;999.90;;;;;;;4.81;76.21;98687.22;5066559;28;20040;-65
2021/04/23 03:40:15;;;;;;;1999.90;999.90;;;;;;;5.13;74.71;98682.41;5064871;28;20049;-65
2021/04/23 03:42:42;;;;;;;1999.90;999.90;;;;;;;5.10;74.95;98689.28;5065745;28;20056;-65
2021/04/23 03:45:10;;;;;;;1999.90;999.90;;;;;;;5.11;74.41;98688.19;5066739;28;20396;-65
2021/04/23 03:47:37;;;;;;;1999.90;999.90;;;;;;;5.39;73.90;98691.31;5061194;28;20439;-65
2021/04/23 03:50:06;;;;;;;1999.90;999.90;;;;;;;5.81;72.40;98681.72;5065666;28;20045;-65
2021/04/23 03:52:32;;;;;;;1999.90;999.90;;;;;;;5.73;71.88;98687.81;5066319;28;20052;-65
2021/04/23 03:55:00;;;;;;;1999.90;999.90;;;;;;;5.32;73.40;98690.81;5063220;28;20106;-65
2021/04/23 03:57:27;;;;;;;1999.90;999.90;;;;;;;5.45;73.12;98690.19;5066134;28;20044;-65
2021/04/23 03:59:53;;;;;;;1999.90;999.90;;;;;;;5.37;73.64;98693.53;5063084;28;20102;-65
2021/04/23 04:02:19;;;;;;;1999.90;999.90;;;;;;;5.48;73.15;98689.63;5059226;28;20056;-65
2021/04/23 04:04:45;;;;;;;1999.90;999.90;;;;;;;5.40;73.40;98702.00;5059649;28;20135;-65
2021/04/23 04:07:11;;;;;;;1999.90;999.90;;;;;;;5.49;73.24;98685.75;5058473;28;20052;-65
2021/04/23 04:09:37;;;;;;;1999.90;999.90;;;;;;;5.73;72.43;98705.09;5062008;28;20653;-65
2021/04/23 04:12:05;;;;;;;1999.90;999.90;;;;;;;6.02;71.63;98700.81;5058381;28;20118;-65
2021/04/23 04:14:32;;;;;;;1999.90;999.90;;;;;;;5.97;71.65;98702.47;5057542;28;20052;-65
2021/04/23 04:16:58;;;;;;;1999.90;999.90;;;;;;;6.10;71.51;98703.75;5058535;28;20056;-65
2021/04/23 04:19:24;;;;;;;1999.90;999.90;;;;;;;6.35;70.80;98708.19;5058914;28;20091;-65
2021/04/23 04:21:50;;;;;;;1999.90;999.90;;;;;;;6.27;70.82;98706.06;5057600;28;20102;-65
2021/04/23 04:24:17;;;;;;;1999.90;999.90;;;;;;;6.47;70.47;98710.53;5056847;28;20063;-65
2021/04/23 04:26:43;;;;;;;1999.90;999.90;;;;;;;6.50;70.38;98706.41;5060061;28;20055;-65
2021/04/23 04:29:11;;;;;;;1999.90;999.90;;;;;;;6.63;70.13;98713.16;5059644;28;20056;-65
2021/04/23 04:31:37;;;;;;;1999.90;999.90;;;;;;;6.35;70.22;98716.41;5058450;28;20107;-65
2021/04/23 04:34:04;;;;;;;1999.90;999.90;;;;;;;6.36;70.44;98717.25;5059804;28;20531;-65
2021/04/23 04:36:31;;;;;;;1999.90;999.90;;;;;;;6.36;70.36;98720.00;5058735;28;20055;-65
2021/04/23 04:38:58;;;;;;;1999.90;999.90;;;;;;;6.25;70.81;98713.78;5060092;28;20052;-65
2021/04/23 04:41:25;;;;;;;1999.90;999.90;;;;;;;6.22;71.23;98714.34;5055940;28;20048;-65
2021/04/23 04:43:51;;;;;;;1999.90;999.90;;;;;;;6.38;70.42;98720.53;5055389;28;20070;-65
2021/04/23 04:46:17;;;;;;;1999.90;999.90;;;;;;;6.55;71.06;98722.84;5062316;28;20052;-65
2021/04/23 04:48:43;;;;;;;1999.90;999.90;;;;;;;6.66;70.06;98718.88;5056844;28;20044;-65
2021/04/23 04:51:10;;;;;;;1999.90;999.90;;;;;;;6.47;71.17;98723.47;5062082;28;20118;-65
2021/04/23 04:53:36;;;;;;;1999.90;999.90;;;;;;;6.47;70.51;98726.22;5060058;28;20267;-65
2021/04/23 04:56:03;;;;;;;1999.90;999.90;;;;;;;6.73;70.58;98724.03;5060142;28;20503;-65
2021/04/23 04:58:32;;;;;;;1999.90;999.90;;;;;;;6.79;70.55;98727.53;5061514;28;20404;-65
2021/04/23 05:01:00;;;;;;;1999.90;999.90;;;;;;;6.84;69.81;98730.25;5056271;28;20059;-65
2021/04/23 05:03:27;;;;;;;1999.90;999.90;;;;;;;6.83;70.50;98734.09;5062246;28;20087;-65
2021/04/23 05:05:53;;;;;;;1999.90;999.90;;;;;;;7.07;69.81;98744.28;5065414;28;20056;-65
2021/04/23 05:08:19;;;;;;;1999.90;999.90;;;;;;;6.82;70.70;98744.28;5060094;28;20325;-65
2021/04/23 05:10:46;;;;;;;1999.90;999.90;;;;;;;6.83;69.89;98747.84;5067072;28;20056;-65
2021/04/23 05:13:12;;;;;;;1999.90;999.90;;;;;;;7.01;69.92;98757.25;5060169;28;20057;-65
2021/04/23 05:15:39;;;;;;;1999.90;999.90;;;;;;;6.79;70.42;98757.75;5060338;28;20052;-65
2021/04/23 05:18:05;;;;;;;1999.90;999.90;;;;;;;6.66;71.31;98760.09;5062170;28;20283;-65
2021/04/23 05:20:33;;;;;;;1999.90;999.90;;;;;;;6.67;71.41;98759.00;5060617;28;20564;-65
2021/04/23 05:23:00;;;;;;;1999.90;999.90;;;;;;;6.53;70.86;98758.03;5064407;28;20758;-65
2021/04/23 05:25:27;;;;;;;1999.90;999.90;;;;;;;6.91;70.87;98766.44;5062780;28;20117;-65
2021/04/23 05:27:54;;;;;;;1999.90;999.90;;;;;;;6.93;70.76;98766.16;5062882;28;20048;-65
2021/04/23 05:30:24;;;;;;;1999.90;999.90;;;;;;;6.56;71.76;98767.63;5063249;28;20071;-65
2021/04/23 05:32:51;;;;;;;1999.90;999.90;;;;;;;7.05;71.16;98767.38;5061724;28;20488;-65
2021/04/23 05:35:19;;;;;;;1999.90;999.90;;;;;;;6.85;71.54;98775.88;5062274;28;20053;-65
2021/04/23 05:37:47;;;;;;;1999.90;999.90;;;;;;;7.32;70.46;98782.47;5061571;28;20367;-65
2021/04/23 05:40:17;;;;;;;1999.90;999.90;;;;;;;7.43;70.36;98779.59;5063256;28;20318;-65
2021/04/23 05:42:43;;;;;;;1999.90;999.90;;;;;;;7.15;70.10;98782.16;5063870;28;20675;-65
2021/04/23 05:45:10;;;;;;;1999.90;999.90;;;;;;;6.91;71.69;98780.19;5062980;28;20056;-65
2021/04/23 05:47:38;;;;;;;1999.90;999.90;;;;;;;7.31;70.61;98777.25;5064099;28;20056;-65
2021/04/23 05:50:07;;;;;;;1999.90;999.90;;;;;;;7.49;69.37;98784.75;5063555;28;20084;-65
2021/04/23 05:52:33;;;;;;;1999.90;999.90;;;;;;;7.21;70.23;98786.47;5059494;28;20610;-65
2021/04/23 05:54:59;;;;;;;1999.90;999.90;;;;;;;7.39;70.37;98795.88;5065612;28;20392;-65
2021/04/23 05:57:25;;;;;;;1999.90;999.90;;;;;;;6.97;70.37;98795.53;5058464;28;20114;-65
2021/04/23 05:59:52;;;;;;;1999.90;999.90;;;;;;;7.03;71.18;98788.06;5059886;28;20052;-65
2021/04/23 06:02:18;;;;;;;1999.90;999.90;;;;;;;7.37;70.28;98798.13;5062031;28;20125;-65
2021/04/23 06:04:44;;;;;;;1999.90;999.90;;;;;;;7.57;69.73;98794.28;5061011;28;20059;-65
2021/04/23 06:07:10;;;;;;;1999.90;999.90;;;;;;;7.56;68.22;98796.22;5063806;28;20106;-65
2021/04/23 06:09:36;;;;;;;1999.90;999.90;;;;;;;7.26;69.22;98797.41;5063006;28;20048;-65
2021/04/23 06:12:02;;;;;;;1999.90;999.90;;;;;;;6.97;70.12;98805.72;5061199;28;20079;-65
2021/04/23 06:14:28;;;;;;;1999.90;999.90;;;;;;;6.94;70.79;98798.06;5061189;28;20492;-65
2021/04/23 06:16:56;;;;;;;1999.90;999.90;;;;;;;7.09;71.32;98792.38;5056441;28;20052;-65
2021/04/23 06:19:22;;;;;;;1999.90;999.90;;;;;;;7.99;68.90;98798.09;5065958;28;20053;-65
2021/04/23 06:21:48;;;;;;;1999.90;999.90;;;;;;;7.94;67.80;98800.94;5061907;28;20569;-65
2021/04/23 06:24:14;;;;;;;1999.90;999.90;;;;;;;7.54;69.60;98800.38;5060573;28;20048;-65
2021/04/23 06:26:40;;;;;;;1999.90;999.90;;;;;;;7.15;71.09;98799.47;5064388;28;20048;-65
2021/04/23 06:29:06;;;;;;;1999.90;999.90;;;;;;;7.64;70.86;98793.94;5060893;28;20098;-65
2021/04/23 06:31:33;;;;;;;1999.90;999.90;;;;;;;7.92;69.70;98797.69;5063834;28;20392;-65
2021/04/23 06:33:59;;;;;;;1999.90;999.90;;;;;;;7.78;69.41;98792.06;5055607;28;20048;-66
2021/04/23 06:36:25;;;;;;;1999.90;999.90;;;;;;;8.07;68.95;98794.69;5056144;28;20058;-65
2021/04/23 06:38:51;;;;;;;1999.90;999.90;;;;;;;8.48;68.78;98797.97;5061201;28;20052;-65
2021/04/23 06:41:18;;;;;;;1999.90;999.90;;;;;;;8.74;69.00;98801.91;5060078;28;20506;-65
2021/04/23 06:43:44;;;;;;;1999.90;999.90;;;;;;;9.16;65.48;98802.00;5057028;28;20045;-65
2021/04/23 06:46:12;;;;;;;1999.90;999.90;;;;;;;9.16;65.53;98802.81;5066480;28;20053;-65
2021/04/23 06:48:40;;;;;;;1999.90;999.90;;;;;;;8.90;66.65;98809.91;5054658;28;20079;-65
2021/04/23 06:51:07;;;;;;;1999.90;999.90;;;;;;;8.93;67.96;98803.78;5059004;28;20048;-65
2021/04/23 06:53:33;;;;;;;1999.90;999.90;;;;;;;8.11;69.19;98805.91;5056809;28;20090;-65
2021/04/23 06:56:02;;;;;;;1999.90;999.90;;;;;;;8.48;68.82;98800.72;5062282;28;20064;-65
2021/04/23 06:58:29;;;;;;;1999.90;999.90;;;;;;;7.85;70.17;98805.50;5064729;28;20052;-65
2021/04/23 07:00:55;;;;;;;1999.90;999.90;;;;;;;7.47;70.79;98811.72;5059510;28;20048;-65
2021/04/23 07:03:21;;;;;;;1999.90;999.90;;;;;;;7.18;72.98;98812.63;5060922;28;20462;-65
2021/04/23 07:05:48;;;;;;;1999.90;999.90;;;;;;;7.69;71.70;98811.19;5052601;28;20470;-65
2021/04/23 07:08:14;;;;;;;1999.90;999.90;;;;;;;7.48;72.02;98804.31;5056817;28;20049;-65
2021/04/23 07:10:41;;;;;;;1999.90;999.90;;;;;;;7.86;71.73;98807.09;5062076;28;20055;-65
2021/04/23 07:13:08;;;;;;;1999.90;999.90;;;;;;;7.88;70.49;98802.94;5061674;28;20044;-65
2021/04/23 07:15:36;;;;;;;1999.90;999.90;;;;;;;7.80;71.21;98800.03;5057586;28;20056;-65
2021/04/23 07:18:03;;;;;;;1999.90;999.90;;;;;;;8.41;69.49;98796.38;5058478;28;20064;-65
2021/04/23 07:20:36;;;;;;;1999.90;999.90;;;;;;;8.02;69.43;98796.69;5057378;28;20044;-65
2021/04/23 07:23:03;;;;;;;1999.90;999.90;;;;;;;8.74;69.01;98806.63;5060794;28;20063;-65
2021/04/23 07:25:30;;;;;;;1999.90;999.90;;;;;;;8.91;68.56;98806.03;5062812;28;20059;-65
2021/04/23 07:27:58;;;;;;;1999.90;999.90;;;;;;;9.32;66.48;98808.03;5059541;28;20048;-65
2021/04/23 07:30:30;;;;;;;1999.90;999.90;;;;;;;8.56;67.46;98805.53;5061764;28;20048;-65
2021/04/23 07:32:58;;;;;;;1999.90;999.90;;;;;;;8.22;68.74;98806.59;5059923;28;20508;-65
2021/04/23 07:35:26;;;;;;;1999.90;999.90;;;;;;;8.77;68.17;98812.34;5063698;28;20556;-65
2021/04/23 07:37:54;;;;;;;1999.90;999.90;;;;;;;8.78;67.49;98814.00;5057556;28;20068;-65
2021/04/23 07:40:20;;;;;;;1999.90;999.90;;;;;;;8.97;67.42;98813.91;5057906;28;20506;-65
2021/04/23 07:42:47;;;;;;;1999.90;999.90;;;;;;;8.80;67.46;98817.25;5063751;28;20080;-64
2021/04/23 07:45:15;;;;;;;1999.90;999.90;;;;;;;8.91;66.59;98815.13;5059887;28;20135;-64
2021/04/23 07:47:43;;;;;;;1999.90;999.90;;;;;;;8.76;66.88;98824.47;5058794;28;20040;-65
2021/04/23 07:50:11;;;;;;;1999.90;999.90;;;;;;;7.80;70.20;98816.56;5058562;28;20080;-65
2021/04/23 07:52:38;;;;;;;1999.90;999.90;;;;;;;7.80;69.99;98816.56;5060661;28;20070;-66
2021/04/23 07:55:06;;;;;;;1999.90;999.90;;;;;;;7.98;71.13;98818.53;5064795;28;20098;-66
2021/04/23 07:57:35;;;;;;;1999.90;999.90;;;;;;;7.96;70.79;98822.69;5058796;28;20519;-66
2021/04/23 08:00:01;;;;;;;1999.90;999.90;;;;;;;8.24;70.13;98823.66;5060261;28;20577;-63
2021/04/23 08:02:28;;;;;;;1999.90;999.90;;;;;;;8.68;67.99;98824.34;5060116;28;20088;-63
2021/04/23 08:04:54;;;;;;;1999.90;999.90;;;;;;;8.77;68.39;98823.38;5058966;28;20045;-63
2021/04/23 08:07:40;;;;;;;1999.90;999.90;;;;;;;9.68;65.48;98813.63;5055322;28;20041;-64
2021/04/23 08:10:09;;;;;;;1999.90;999.90;;;;;;;9.62;62.99;98817.63;5063628;28;20056;-64
2021/04/23 08:12:36;;;;;;;1999.90;999.90;;;;;;;8.54;65.48;98808.59;5057565;28;20048;-63
2021/04/23 08:15:03;;;;;;;1999.90;999.90;;;;;;;8.48;67.53;98825.53;5064399;28;20088;-64
2021/04/23 08:17:30;;;;;;;1999.90;999.90;;;;;;;8.76;66.64;98816.22;5054569;28;20054;-64
2021/04/23 08:19:56;;;;;;;1999.90;999.90;;;;;;;8.61;64.96;98824.75;5058690;28;20052;-64
2021/04/23 08:22:23;;;;;;;1999.90;999.90;;;;;;;8.49;66.69;98827.16;5064458;28;20056;-63
2021/04/23 08:24:49;;;;;;;1999.90;999.90;;;;;;;8.48;66.63;98825.53;5059745;28;20071;-63
2021/04/23 08:27:15;;;;;;;1999.90;999.90;;;;;;;8.95;66.64;98820.88;5062463;28;20049;-64
2021/04/23 08:29:41;;;;;;;1999.90;999.90;;;;;;;8.63;66.10;98823.34;5060342;28;20677;-64
2021/04/23 08:32:07;;;;;;;1999.90;999.90;;;;;;;8.38;66.56;98821.78;5069948;28;20137;-64
2021/04/23 08:34:33;;;;;;;1999.90;999.90;;;;;;;8.14;68.23;98826.56;5062382;28;20052;-64
2021/04/23 08:36:59;;;;;;;1999.90;999.90;;;;;;;8.04;71.82;98822.84;5062184;28;20101;-64
2021/04/23 08:39:25;;;;;;;1999.90;999.90;;;;;;;8.31;71.04;98826.84;5063344;28;20121;-64
2021/04/23 08:41:51;;;;;;;1999.90;999.90;;;;;;;7.21;74.28;98824.97;5065023;28;20052;-64
2021/04/23 08:44:17;;;;;;;1999.90;999.90;;;;;;;6.37;78.66;98828.75;5060570;28;20045;-64
2021/04/23 08:46:44;;;;;;;1999.90;999.90;;;;;;;6.29;80.01;98852.16;5066551;28;20078;-64
2021/04/23 08:49:10;;;;;;;1999.90;999.90;;;;;;;6.38;81.38;98859.81;5064234;28;20052;-64
2021/04/23 08:51:37;;;;;;;1999.90;999.90;;;;;;;6.17;84.15;98849.78;5062504;28;20522;-64
2021/04/23 08:54:03;;;;;;;1999.90;999.90;;;;;;;6.70;82.86;98856.56;5065924;28;20052;-64
2021/04/23 08:56:30;;;;;;;1999.90;999.90;;;;;;;6.97;81.63;98856.03;5061019;28;20312;-65
2021/04/23 08:58:56;;;;;;;1999.90;999.90;;;;;;;7.37;80.23;98851.22;5056367;28;21657;-65
2021/04/23 09:01:22;;;;;;;1999.90;999.90;;;;;;;7.26;79.50;98844.16;5064911;28;20121;-65
2021/04/23 09:03:49;;;;;;;1999.90;999.90;;;;;;;7.56;79.48;98858.69;5061219;28;20057;-66
2021/04/23 09:06:24;;;;;;;1999.90;999.90;;;;;;;7.73;77.89;98859.03;5065934;28;20052;-66
2021/04/23 09:08:56;;;;;;;1999.90;999.90;;;;;;;7.98;76.30;98850.72;5059994;28;20052;-64
2021/04/23 09:11:23;;;;;;;1999.90;999.90;;;;;;;8.36;73.79;98848.00;5061550;28;20044;-64
2021/04/23 09:13:52;;;;;;;1999.90;999.90;;;;;;;8.76;71.67;98849.31;5065943;28;20106;-64
2021/04/23 09:16:20;;;;;;;1999.90;999.90;;;;;;;9.21;71.19;98853.50;5062559;28;20049;-64
2021/04/23 09:18:51;;;;;;;1999.90;999.90;;;;;;;8.76;69.43;98843.78;5065252;28;20052;-64
2021/04/23 09:21:18;;;;;;;1999.90;999.90;;;;;;;8.50;70.26;98850.84;5064066;28;20052;-64
2021/04/23 09:23:53;;;;;;;1999.90;999.90;;;;;;;8.82;68.66;98845.34;5061684;28;20561;-65
2021/04/23 09:26:38;;;;;;;1999.90;999.90;;;;;;;8.45;67.44;98835.19;5065459;28;20048;-64
2021/04/23 09:29:20;;;;;;;1999.90;999.90;;;;;;;9.07;66.46;98834.97;5061476;28;20092;-64
2021/04/23 09:31:46;;;;;;;1999.90;999.90;;;;;;;9.93;64.66;98841.00;5060237;28;20098;-64
2021/04/23 09:34:12;;;;;;;1999.90;999.90;;;;;;;10.88;62.12;98827.19;5059867;28;20049;-64
2021/04/23 09:36:44;;;;;;;1999.90;999.90;;;;;;;10.93;60.83;98838.13;5064429;28;20106;-64
2021/04/23 09:39:19;;;;;;;1999.90;999.90;;;;;;;10.31;62.79;98847.06;5063292;28;20048;-64
2021/04/23 09:41:47;;;;;;;1999.90;999.90;;;;;;;10.02;64.19;98839.19;5063231;28;20053;-65
2021/04/23 09:44:32;;;;;;;1999.90;999.90;;;;;;;8.52;74.07;98843.09;5061344;28;20052;-65
2021/04/23 09:47:04;;;;;;;1999.90;999.90;;;;;;;7.50;77.72;98837.84;5064827;28;20049;-64
2021/04/23 09:49:32;;;;;;;1999.90;999.90;;;;;;;6.86;79.69;98841.56;5064845;28;20048;-64
2021/04/23 09:52:00;;;;;;;1999.90;999.90;;;;;;;6.85;79.90;98844.59;5063194;28;20569;-63
2021/04/23 09:54:26;;;;;;;1999.90;999.90;;;;;;;7.17;80.65;98832.16;5062977;28;20440;-64
2021/04/23 09:56:54;;;;;;;1999.90;999.90;;;;;;;8.52;76.36;98840.34;5060406;28;20049;-65
2021/04/23 09:59:25;;;;;;;1999.90;999.90;;;;;;;9.52;70.63;98832.44;5063363;28;20056;-64
2021/04/23 10:02:04;;;;;;;1999.90;999.90;;;;;;;9.51;68.41;98841.88;5062608;28;20052;-65
2021/04/23 10:04:35;;;;;;;1999.90;999.90;;;;;;;10.06;67.88;98834.63;5061081;28;20156;-65
2021/04/23 10:07:21;;;;;;;1999.90;999.90;;;;;;;10.95;65.93;98831.47;5063926;28;20051;-65
2021/04/23 10:09:53;;;;;;;1999.90;999.90;;;;;;;11.45;65.40;98831.22;5064108;28;20044;-65
2021/04/23 10:12:39;;;;;;;1999.90;999.90;;;;;;;11.61;61.61;98826.88;5061730;28;20067;-65
2021/04/23 10:15:20;;;;;;;1999.90;999.90;;;;;;;12.97;60.30;98826.00;5061128;28;20113;-66
2021/04/23 10:17:54;;;;;;;1999.90;999.90;;;;;;;12.80;58.48;98826.84;5064433;28;20044;-66
2021/04/23 10:20:23;;;;;;;1999.90;999.90;;;;;;;11.20;60.58;98829.97;5063563;28;20067;-65
2021/04/23 10:22:51;;;;;;;1999.90;999.90;;;;;;;10.52;57.57;98825.31;5062280;28;20529;-65
2021/04/23 10:25:18;;;;;;;1999.90;999.90;;;;;;;10.85;60.96;98816.78;5061470;28;20813;-66
2021/04/23 10:27:46;;;;;;;1999.90;999.90;;;;;;;10.21;58.70;98823.25;5060118;28;20052;-65
2021/04/23 10:30:16;;;;;;;1999.90;999.90;;;;;;;9.85;60.14;98826.81;5061444;28;20052;-65
2021/04/23 10:33:05;;;;;;;1999.90;999.90;;;;;;;9.75;61.88;98818.75;5061864;28;21329;-65
2021/04/23 10:35:32;;;;;;;1999.90;999.90;;;;;;;8.88;65.07;98825.97;5062826;28;20049;-65
2021/04/23 10:38:01;;;;;;;1999.90;999.90;;;;;;;9.14;64.63;98820.78;5060485;28;20044;-65
2021/04/23 10:40:28;;;;;;;1999.90;999.90;;;;;;;9.26;62.99;98828.56;5061050;28;20140;-65
2021/04/23 10:43:08;;;;;;;1999.90;999.90;;;;;;;8.98;64.71;98817.50;5064354;28;20628;-66
2021/04/23 10:45:52;;;;;;;1999.90;999.90;;;;;;;9.36;63.27;98827.56;5053591;28;20056;-65
2021/04/23 10:48:18;;;;;;;1999.90;999.90;;;;;;;9.87;62.98;98819.03;5058739;28;20047;-65
2021/04/23 10:50:56;;;;;;;1999.90;999.90;;;;;;;9.20;62.24;98824.25;5065360;28;20052;-65
2021/04/23 10:53:25;;;;;;;1999.90;999.90;;;;;;;9.59;60.81;98815.47;5060991;28;20114;-65
2021/04/23 10:56:00;;;;;;;1999.90;999.90;;;;;;;10.31;57.99;98813.09;5062134;28;20442;-65
2021/04/23 10:58:26;;;;;;;1999.90;999.90;;;;;;;10.13;57.30;98823.97;5063247;28;20214;-65
2021/04/23 11:00:57;;;;;;;1999.90;999.90;;;;;;;10.38;57.88;98802.44;5061691;28;20135;-65
2021/04/23 11:03:36;;;;;;;1999.90;999.90;;;;;;;9.76;59.40;98820.38;5065048;28;20060;-65
2021/04/23 11:06:07;;;;;;;1999.90;999.90;;;;;;;10.00;57.58;98822.06;5056820;28;20056;-65
2021/04/23 11:08:35;;;;;;;1999.90;999.90;;;;;;;10.66;58.89;98813.38;5059496;28;20060;-65